Time;durP1;ratioP1;P1;durP2;ratioP2;P2;SDS_P1;SDS_P2;PMS_P1;PMS_P2;Temp;Humidity;BMP_temperature;BMP_pressure;BME280_temperature;BME280_humidity;BME280_pressure;Samples;Min_cycle;Max_cycle;Signal;HPM_P1;HPM_P2
2022/04/30 00:00:42;;;;;;;2.15;1.10;;;;;;;;;;4953360;29;20034;-77
2022/04/30 00:03:09;;;;;;;1.45;1.30;;;;;;;;;;4937170;29;20023;-77
2022/04/30 00:05:34;;;;;;;1.30;1.10;;;;;;;;;;4953544;29;20449;-77
2022/04/30 00:08:01;;;;;;;2.38;1.20;;;;;;;;;;4954639;29;20027;-77
2022/04/30 00:10:26;;;;;;;1.38;1.00;;;;;;;;;;4937072;29;20394;-78
2022/04/30 00:12:52;;;;;;;3.05;1.58;;;;;;;;;;4952711;28;20027;-77
2022/04/30 00:15:19;;;;;;;2.70;1.50;;;;;;;;;;4953031;29;20031;-77
2022/04/30 00:17:44;;;;;;;2.30;1.30;;;;;;;;;;4954317;29;20031;-78
2022/04/30 00:20:09;;;;;;;2.28;1.33;;;;;;;;;;4952873;29;20109;-78
2022/04/30 00:22:35;;;;;;;1.70;0.90;;;;;;;;;;4952869;29;20042;-79
2022/04/30 00:25:01;;;;;;;1.92;1.20;;;;;;;;;;4953069;29;20019;-78
2022/04/30 00:27:27;;;;;;;0.90;0.90;;;;;;;;;;4937056;29;20039;-78
2022/04/30 00:29:53;;;;;;;1.00;1.00;;;;;;;;;;4952855;29;20053;-76
2022/04/30 00:32:19;;;;;;;1.08;0.98;;;;;;;;;;4952843;28;20032;-76
2022/04/30 00:34:45;;;;;;;2.38;1.00;;;;;;;;;;4954110;29;20027;-78
2022/04/30 00:37:10;;;;;;;2.78;1.13;;;;;;;;;;4968636;28;20394;-76
2022/04/30 00:39:35;;;;;;;2.40;1.15;;;;;;;;;;4953885;29;20034;-78
2022/04/30 00:42:01;;;;;;;1.10;1.10;;;;;;;;;;4953933;29;20470;-76
2022/04/30 00:44:30;;;;;;;1.40;1.20;;;;;;;;;;4952872;29;20023;-78
2022/04/30 00:46:55;;;;;;;1.65;1.10;;;;;;;;;;4952751;29;20046;-76
2022/04/30 00:49:21;;;;;;;1.40;1.17;;;;;;;;;;4952816;29;20032;-77
2022/04/30 00:51:48;;;;;;;1.10;1.00;;;;;;;;;;4952632;29;20028;-76
2022/04/30 00:54:14;;;;;;;1.30;1.20;;;;;;;;;;4952457;29;20058;-76
2022/04/30 00:56:56;;;;;;;1.17;1.08;;;;;;;;;;4952586;28;20031;-78
2022/04/30 00:59:21;;;;;;;2.92;1.40;;;;;;;;;;4952826;29;20126;-78
2022/04/30 01:01:48;;;;;;;1.77;1.30;;;;;;;;;;4952764;29;20059;-78
2022/04/30 01:04:15;;;;;;;4.32;1.42;;;;;;;;;;4952751;29;20030;-79
2022/04/30 01:06:55;;;;;;;2.33;1.40;;;;;;;;;;4952447;29;20106;-78
2022/04/30 01:09:28;;;;;;;4.90;2.33;;;;;;;;;;4953810;29;20051;-78
2022/04/30 01:12:08;;;;;;;1.85;1.42;;;;;;;;;;4968426;28;20114;-77
2022/04/30 01:14:34;;;;;;;3.47;1.55;;;;;;;;;;4952644;29;20466;-77
2022/04/30 01:17:02;;;;;;;1.40;1.23;;;;;;;;;;4952446;29;20049;-78
2022/04/30 01:19:28;;;;;;;2.42;1.50;;;;;;;;;;4952718;29;20066;-78
2022/04/30 01:21:58;;;;;;;1.30;1.20;;;;;;;;;;4953679;29;20031;-78
2022/04/30 01:24:25;;;;;;;4.20;1.52;;;;;;;;;;4953682;28;20106;-76
2022/04/30 01:26:52;;;;;;;3.28;1.40;;;;;;;;;;4956212;29;20027;-76
2022/04/30 01:29:23;;;;;;;2.67;1.40;;;;;;;;;;4940506;29;20419;-76
2022/04/30 01:37:24;;;;;;;1.40;1.30;;;;;;;;;;4956574;29;20045;-76
2022/04/30 01:40:02;;;;;;;2.03;1.25;;;;;;;;;;4955824;28;20031;-76
2022/04/30 01:42:30;;;;;;;2.67;1.83;;;;;;;;;;4955923;29;20105;-76
2022/04/30 01:44:56;;;;;;;2.10;1.25;;;;;;;;;;4956192;29;20475;-76
2022/04/30 01:47:22;;;;;;;1.50;1.10;;;;;;;;;;4955794;29;20490;-78
2022/04/30 01:49:48;;;;;;;1.38;1.27;;;;;;;;;;4955706;28;20038;-76
2022/04/30 01:52:14;;;;;;;2.45;1.42;;;;;;;;;;4957228;29;20028;-76
2022/04/30 01:54:40;;;;;;;1.58;1.48;;;;;;;;;;4955400;29;20054;-76
2022/04/30 01:57:05;;;;;;;2.25;1.40;;;;;;;;;;4955754;29;20039;-76
2022/04/30 01:59:31;;;;;;;2.17;1.13;;;;;;;;;;4957074;29;20114;-76
2022/04/30 02:01:57;;;;;;;1.55;1.40;;;;;;;;;;4939478;29;20473;-78
2022/04/30 02:04:22;;;;;;;1.30;1.00;;;;;;;;;;4956759;29;20042;-76
2022/04/30 02:06:48;;;;;;;1.50;1.40;;;;;;;;;;4955554;29;20039;-77
2022/04/30 02:09:14;;;;;;;1.10;1.00;;;;;;;;;;4955291;29;20035;-76
2022/04/30 02:11:44;;;;;;;4.35;1.27;;;;;;;;;;4955238;29;20038;-76
2022/04/30 02:14:14;;;;;;;1.88;1.10;;;;;;;;;;4955228;29;20119;-76
2022/04/30 02:16:40;;;;;;;2.10;1.30;;;;;;;;;;4956559;29;20090;-76
2022/04/30 02:19:10;;;;;;;2.72;1.13;;;;;;;;;;4956436;28;20035;-76
2022/04/30 02:21:36;;;;;;;1.10;1.10;;;;;;;;;;4955366;29;20038;-76
2022/04/30 02:24:02;;;;;;;1.98;1.10;;;;;;;;;;4954946;29;20031;-76
2022/04/30 02:26:28;;;;;;;1.58;1.27;;;;;;;;;;4954746;29;20469;-76
2022/04/30 02:28:57;;;;;;;2.88;1.23;;;;;;;;;;4955095;29;20039;-76
2022/04/30 02:31:25;;;;;;;2.92;1.40;;;;;;;;;;4955108;28;20178;-77
2022/04/30 02:33:54;;;;;;;1.42;1.33;;;;;;;;;;4954838;29;20066;-76
2022/04/30 02:36:25;;;;;;;1.95;1.23;;;;;;;;;;4954472;28;20027;-76
2022/04/30 02:38:52;;;;;;;2.17;1.30;;;;;;;;;;4939669;29;20406;-78
2022/04/30 02:41:20;;;;;;;1.60;1.23;;;;;;;;;;4970789;28;20035;-79
2022/04/30 02:43:46;;;;;;;3.00;1.30;;;;;;;;;;4954637;29;20031;-78
2022/04/30 02:46:13;;;;;;;1.25;1.20;;;;;;;;;;4954547;29;20035;-78
2022/04/30 02:48:39;;;;;;;1.33;1.23;;;;;;;;;;4955063;29;20034;-78
2022/04/30 02:51:04;;;;;;;1.20;1.10;;;;;;;;;;4955892;29;20031;-77
2022/04/30 02:53:30;;;;;;;2.45;1.40;;;;;;;;;;4938569;29;20161;-77
2022/04/30 02:55:55;;;;;;;1.50;1.40;;;;;;;;;;4955774;29;20166;-77
2022/04/30 03:01:05;;;;;;;1.08;1.05;;;;;;;;;;4955940;29;20042;-77
2022/04/30 03:03:31;;;;;;;1.20;1.10;;;;;;;;;;4954513;28;20135;-77
2022/04/30 03:05:57;;;;;;;1.35;1.20;;;;;;;;;;4938723;29;20126;-77
2022/04/30 03:08:25;;;;;;;2.97;1.27;;;;;;;;;;4954350;28;20118;-77
2022/04/30 03:10:55;;;;;;;1.40;1.20;;;;;;;;;;4954266;28;20557;-77
2022/04/30 03:13:21;;;;;;;1.48;1.30;;;;;;;;;;4954171;29;20038;-78
2022/04/30 03:15:49;;;;;;;1.52;1.20;;;;;;;;;;4955305;29;20035;-77
2022/04/30 03:23:37;;;;;;;2.25;1.20;;;;;;;;;;4954204;29;20027;-77
2022/04/30 03:26:08;;;;;;;1.40;1.20;;;;;;;;;;4954129;29;20035;-77
2022/04/30 03:28:36;;;;;;;1.20;1.10;;;;;;;;;;4938331;29;20470;-77
2022/04/30 03:31:02;;;;;;;1.83;1.10;;;;;;;;;;4955241;29;20051;-77
2022/04/30 03:33:28;;;;;;;1.70;1.30;;;;;;;;;;4954995;28;20039;-77
2022/04/30 03:35:54;;;;;;;2.88;1.30;;;;;;;;;;4953724;29;20113;-77
2022/04/30 03:38:20;;;;;;;1.30;1.20;;;;;;;;;;4955063;29;20095;-77
2022/04/30 03:40:45;;;;;;;1.40;1.30;;;;;;;;;;4953831;29;20043;-77
2022/04/30 03:43:11;;;;;;;1.38;1.27;;;;;;;;;;4953685;29;20027;-78
2022/04/30 03:45:36;;;;;;;3.13;1.42;;;;;;;;;;4953470;29;20035;-77
2022/04/30 03:48:03;;;;;;;1.52;1.27;;;;;;;;;;4952925;28;20493;-78
2022/04/30 03:50:28;;;;;;;4.57;1.80;;;;;;;;;;4954695;29;20031;-77
2022/04/30 03:52:53;;;;;;;4.68;1.58;;;;;;;;;;4953207;29;20097;-77
2022/04/30 03:55:19;;;;;;;2.10;1.35;;;;;;;;;;4953282;29;20023;-77
2022/04/30 03:57:44;;;;;;;1.58;1.30;;;;;;;;;;4953569;29;20027;-77
2022/04/30 04:00:11;;;;;;;1.70;1.20;;;;;;;;;;4954536;29;20039;-77
2022/04/30 04:02:39;;;;;;;1.10;1.10;;;;;;;;;;4953170;29;20131;-77
2022/04/30 04:05:07;;;;;;;1.70;1.20;;;;;;;;;;4953186;29;20035;-77
2022/04/30 04:07:32;;;;;;;1.35;1.23;;;;;;;;;;4954287;29;20027;-76
2022/04/30 04:09:58;;;;;;;1.17;1.17;;;;;;;;;;4937112;29;20106;-77
2022/04/30 04:12:23;;;;;;;1.45;1.33;;;;;;;;;;4952828;29;20043;-77
2022/04/30 04:17:39;;;;;;;1.30;1.20;;;;;;;;;;4954260;29;20493;-77
2022/04/30 04:20:09;;;;;;;1.40;1.30;;;;;;;;;;4953421;28;20102;-77
2022/04/30 04:22:35;;;;;;;2.08;1.40;;;;;;;;;;4952997;29;20030;-77
2022/04/30 04:27:45;;;;;;;1.50;1.40;;;;;;;;;;4953432;29;20054;-77
2022/04/30 04:30:11;;;;;;;2.38;1.30;;;;;;;;;;4952868;29;20047;-77
2022/04/30 04:32:36;;;;;;;2.03;1.60;;;;;;;;;;4952951;28;20040;-78
2022/04/30 04:35:02;;;;;;;1.70;1.60;;;;;;;;;;4953116;29;20122;-77
2022/04/30 04:37:27;;;;;;;1.58;1.48;;;;;;;;;;4953188;29;20104;-77
2022/04/30 04:39:54;;;;;;;1.77;1.67;;;;;;;;;;4953095;29;20394;-77
2022/04/30 04:42:20;;;;;;;2.88;1.90;;;;;;;;;;4954633;29;20027;-77
2022/04/30 04:44:46;;;;;;;2.67;1.50;;;;;;;;;;4954356;28;20031;-77
2022/04/30 04:47:12;;;;;;;1.90;1.40;;;;;;;;;;4953199;29;20144;-77
2022/04/30 04:49:37;;;;;;;1.63;1.48;;;;;;;;;;4937212;29;20434;-77
2022/04/30 04:52:03;;;;;;;1.40;1.30;;;;;;;;;;4953030;29;20163;-77
2022/04/30 04:54:29;;;;;;;1.45;1.35;;;;;;;;;;4952897;29;20196;-77
2022/04/30 04:56:55;;;;;;;2.35;1.35;;;;;;;;;;4953185;29;20031;-77
2022/04/30 04:59:20;;;;;;;1.60;1.35;;;;;;;;;;4955502;28;20105;-77
2022/04/30 05:01:48;;;;;;;2.25;1.35;;;;;;;;;;4956870;29;20042;-77
2022/04/30 05:04:13;;;;;;;2.22;1.50;;;;;;;;;;4957001;29;20027;-77
2022/04/30 05:06:39;;;;;;;1.48;1.38;;;;;;;;;;4925183;29;20082;-77
2022/04/30 05:09:04;;;;;;;1.60;1.33;;;;;;;;;;4972882;28;20081;-77
2022/04/30 05:11:29;;;;;;;2.83;1.30;;;;;;;;;;4958129;29;20034;-77
2022/04/30 05:13:55;;;;;;;1.42;1.30;;;;;;;;;;4957483;29;20038;-77
2022/04/30 05:16:20;;;;;;;1.20;1.20;;;;;;;;;;4956893;29;20118;-77
2022/04/30 05:18:46;;;;;;;1.48;1.20;;;;;;;;;;4958284;29;20039;-77
2022/04/30 05:21:11;;;;;;;2.67;1.30;;;;;;;;;;4956892;29;20470;-78
2022/04/30 05:23:37;;;;;;;1.60;1.48;;;;;;;;;;4957884;29;20106;-78
2022/04/30 05:26:03;;;;;;;2.13;1.40;;;;;;;;;;4956739;29;20027;-78
2022/04/30 05:28:28;;;;;;;1.55;1.38;;;;;;;;;;4940529;29;20395;-78
2022/04/30 05:30:54;;;;;;;2.15;1.38;;;;;;;;;;4957672;29;20045;-78
2022/04/30 05:33:19;;;;;;;3.17;1.60;;;;;;;;;;4957472;28;20058;-77
2022/04/30 05:35:45;;;;;;;1.23;1.20;;;;;;;;;;4956313;29;20031;-77
2022/04/30 05:38:10;;;;;;;1.50;1.40;;;;;;;;;;4956612;29;20241;-78
2022/04/30 05:40:36;;;;;;;4.60;1.60;;;;;;;;;;4957711;29;20117;-78
2022/04/30 05:43:02;;;;;;;4.57;1.60;;;;;;;;;;4956195;29;20114;-79
2022/04/30 05:45:28;;;;;;;4.38;1.50;;;;;;;;;;4955998;29;20047;-78
2022/04/30 05:47:53;;;;;;;7.65;2.38;;;;;;;;;;4957022;29;20041;-78
2022/04/30 05:50:18;;;;;;;10.40;3.17;;;;;;;;;;4955851;29;20052;-77
2022/04/30 05:52:44;;;;;;;8.38;2.40;;;;;;;;;;4956883;29;20470;-76
2022/04/30 05:55:09;;;;;;;10.57;3.00;;;;;;;;;;4955479;29;20474;-76
2022/04/30 05:57:34;;;;;;;7.25;2.72;;;;;;;;;;4955772;29;20051;-76
2022/04/30 06:00:00;;;;;;;10.02;3.03;;;;;;;;;;4956726;29;20097;-76
2022/04/30 06:02:26;;;;;;;5.40;2.88;;;;;;;;;;4955260;29;20130;-76
2022/04/30 06:04:52;;;;;;;7.95;2.83;;;;;;;;;;4956431;29;20390;-79
2022/04/30 06:07:17;;;;;;;14.70;3.08;;;;;;;;;;4955468;29;20035;-79
2022/04/30 06:09:43;;;;;;;15.38;3.17;;;;;;;;;;4954483;28;20027;-78
2022/04/30 06:12:09;;;;;;;10.02;2.80;;;;;;;;;;4955254;29;20054;-79
2022/04/30 06:14:34;;;;;;;9.60;2.92;;;;;;;;;;4954848;29;20038;-79
2022/04/30 06:17:00;;;;;;;13.73;3.05;;;;;;;;;;4939218;29;20470;-79
2022/04/30 06:19:26;;;;;;;10.00;3.72;;;;;;;;;;4955188;29;20114;-79
2022/04/30 06:21:51;;;;;;;8.27;3.95;;;;;;;;;;4955199;29;20501;-79
2022/04/30 06:24:18;;;;;;;11.88;4.30;;;;;;;;;;4955039;29;20363;-79
2022/04/30 06:26:44;;;;;;;10.30;4.43;;;;;;;;;;4955070;29;20057;-79
2022/04/30 06:29:13;;;;;;;8.50;4.45;;;;;;;;;;4955034;29;20500;-79
2022/04/30 06:31:38;;;;;;;11.95;4.88;;;;;;;;;;4955152;28;20374;-79
2022/04/30 06:34:04;;;;;;;7.63;5.63;;;;;;;;;;4938760;29;20034;-79
2022/04/30 06:36:29;;;;;;;8.43;5.38;;;;;;;;;;4954997;28;20043;-78
2022/04/30 06:38:55;;;;;;;12.20;5.72;;;;;;;;;;4956240;29;20033;-77
2022/04/30 06:41:23;;;;;;;15.43;5.78;;;;;;;;;;4938869;29;20146;-78
2022/04/30 06:43:51;;;;;;;10.10;5.70;;;;;;;;;;4954602;29;20065;-77
2022/04/30 06:46:17;;;;;;;11.63;5.75;;;;;;;;;;4970566;28;20035;-77
2022/04/30 06:48:44;;;;;;;8.52;4.80;;;;;;;;;;4954659;29;20059;-77
2022/04/30 06:51:10;;;;;;;9.25;5.90;;;;;;;;;;4954602;29;20503;-77
2022/04/30 06:59:10;;;;;;;7.55;5.00;;;;;;;;;;4941372;29;20066;-77
2022/04/30 07:04:11;;;;;;;7.65;4.60;;;;;;;;;;4955808;29;20065;-77
2022/04/30 07:06:37;;;;;;;7.90;4.65;;;;;;;;;;4954219;29;20127;-79
2022/04/30 07:09:05;;;;;;;11.48;4.82;;;;;;;;;;4954151;29;20423;-78
2022/04/30 07:11:30;;;;;;;6.25;4.93;;;;;;;;;;4954165;29;20023;-78
2022/04/30 07:13:56;;;;;;;13.07;5.55;;;;;;;;;;4954034;29;20134;-78
2022/04/30 07:16:21;;;;;;;8.23;5.28;;;;;;;;;;4954044;29;20042;-78
2022/04/30 07:18:47;;;;;;;12.75;4.93;;;;;;;;;;4938079;29;20164;-77
2022/04/30 07:21:12;;;;;;;6.97;4.60;;;;;;;;;;4953937;28;20031;-78
2022/04/30 07:23:37;;;;;;;9.20;4.95;;;;;;;;;;4955337;29;20024;-77
2022/04/30 07:26:03;;;;;;;9.43;4.90;;;;;;;;;;4953758;29;20031;-78
2022/04/30 07:28:35;;;;;;;7.45;4.70;;;;;;;;;;4937881;29;20110;-78
2022/04/30 07:31:03;;;;;;;7.00;4.18;;;;;;;;;;4954523;28;20114;-77
2022/04/30 07:33:29;;;;;;;5.65;4.25;;;;;;;;;;4953446;28;20436;-77
2022/04/30 07:35:55;;;;;;;6.25;4.22;;;;;;;;;;4953809;29;20057;-78
2022/04/30 07:38:21;;;;;;;7.05;4.13;;;;;;;;;;4953605;29;20121;-78
2022/04/30 07:40:47;;;;;;;7.68;5.05;;;;;;;;;;4953609;29;20114;-77
2022/04/30 07:43:13;;;;;;;9.20;4.25;;;;;;;;;;4953659;29;20030;-77
2022/04/30 07:45:38;;;;;;;7.00;3.53;;;;;;;;;;4937564;29;20035;-77
2022/04/30 07:48:04;;;;;;;4.53;3.67;;;;;;;;;;4953389;29;20035;-77
2022/04/30 07:50:35;;;;;;;6.10;4.03;;;;;;;;;;4954536;29;20035;-77
2022/04/30 07:53:04;;;;;;;6.30;4.47;;;;;;;;;;4953327;29;20026;-77
2022/04/30 07:55:30;;;;;;;7.20;3.50;;;;;;;;;;4937172;29;20105;-77
2022/04/30 07:57:55;;;;;;;7.00;4.10;;;;;;;;;;4954478;29;20110;-77
2022/04/30 08:00:20;;;;;;;7.88;3.67;;;;;;;;;;4937164;29;20117;-77
2022/04/30 08:02:47;;;;;;;7.32;3.30;;;;;;;;;;4937297;29;20039;-77
2022/04/30 08:05:13;;;;;;;8.65;3.58;;;;;;;;;;4937137;29;20032;-77
2022/04/30 08:07:38;;;;;;;10.85;4.03;;;;;;;;;;4937026;29;20038;-77
2022/04/30 08:10:04;;;;;;;3.92;3.20;;;;;;;;;;4954566;29;20089;-77
2022/04/30 08:12:30;;;;;;;6.05;3.40;;;;;;;;;;4936967;29;20038;-78
2022/04/30 08:14:55;;;;;;;5.40;3.40;;;;;;;;;;4921014;29;20035;-78
2022/04/30 08:17:20;;;;;;;3.97;2.97;;;;;;;;;;4952959;29;20058;-76
2022/04/30 08:19:47;;;;;;;6.40;3.47;;;;;;;;;;4954317;29;20035;-76
2022/04/30 08:22:13;;;;;;;6.10;3.55;;;;;;;;;;4921634;29;20027;-76
2022/04/30 08:24:39;;;;;;;3.92;2.80;;;;;;;;;;4937055;29;20383;-76
2022/04/30 08:27:05;;;;;;;3.00;2.60;;;;;;;;;;4954310;29;20066;-77
2022/04/30 08:29:30;;;;;;;3.83;3.00;;;;;;;;;;4937084;29;20058;-76
2022/04/30 08:31:56;;;;;;;3.75;2.70;;;;;;;;;;4936806;29;20042;-76
2022/04/30 08:34:21;;;;;;;7.18;2.90;;;;;;;;;;4936839;29;20034;-76
2022/04/30 08:36:46;;;;;;;4.43;2.75;;;;;;;;;;4921510;29;20043;-79
2022/04/30 08:39:12;;;;;;;3.55;2.50;;;;;;;;;;4936895;29;20042;-78
2022/04/30 08:41:43;;;;;;;4.70;2.85;;;;;;;;;;4921107;29;20027;-78
2022/04/30 08:44:13;;;;;;;4.88;2.80;;;;;;;;;;4937058;29;20483;-78
2022/04/30 08:46:39;;;;;;;4.10;2.67;;;;;;;;;;4922206;29;20153;-78
2022/04/30 08:49:06;;;;;;;6.18;2.90;;;;;;;;;;4938868;29;20035;-76
2022/04/30 08:51:31;;;;;;;9.45;2.97;;;;;;;;;;4923039;29;20031;-76
2022/04/30 08:53:57;;;;;;;3.45;2.67;;;;;;;;;;4921273;29;20371;-76
2022/04/30 08:56:23;;;;;;;2.90;2.60;;;;;;;;;;4953991;29;20054;-77
2022/04/30 08:58:48;;;;;;;4.38;2.47;;;;;;;;;;4953803;29;20053;-77
2022/04/30 09:01:13;;;;;;;4.60;2.53;;;;;;;;;;4952659;29;20035;-78
2022/04/30 09:03:39;;;;;;;4.25;2.40;;;;;;;;;;4953553;29;20055;-76
2022/04/30 09:06:05;;;;;;;3.35;2.20;;;;;;;;;;4952392;29;20097;-78
2022/04/30 09:08:31;;;;;;;5.10;2.50;;;;;;;;;;4936434;29;20022;-76
2022/04/30 09:11:08;;;;;;;5.28;2.60;;;;;;;;;;4936513;29;20424;-76
2022/04/30 09:13:44;;;;;;;4.88;2.50;;;;;;;;;;4952316;29;20055;-77
2022/04/30 09:16:19;;;;;;;3.50;2.20;;;;;;;;;;4952732;29;20093;-76
2022/04/30 09:18:44;;;;;;;5.72;2.60;;;;;;;;;;4953693;29;20028;-76
2022/04/30 09:21:13;;;;;;;3.97;2.40;;;;;;;;;;4952516;29;20034;-77
2022/04/30 09:23:39;;;;;;;5.55;2.70;;;;;;;;;;4952153;28;20028;-76
2022/04/30 09:26:05;;;;;;;3.42;2.50;;;;;;;;;;4952102;29;20035;-76
2022/04/30 09:28:33;;;;;;;2.67;2.33;;;;;;;;;;4953815;29;20366;-77
2022/04/30 09:31:20;;;;;;;3.03;2.50;;;;;;;;;;4936613;29;20031;-77
2022/04/30 09:37:41;;;;;;;2.20;2.00;;;;;;;;;;4936358;29;20031;-77
2022/04/30 09:39:32;;;;;;;2.45;1.95;;;;;;;;;;4952128;29;20101;-77
2022/04/30 09:42:02;;;;;;;3.28;1.98;;;;;;;;;;4952252;29;20031;-78
2022/04/30 09:44:28;;;;;;;5.38;2.15;;;;;;;;;;4951866;28;20382;-77
2022/04/30 09:46:55;;;;;;;2.35;2.13;;;;;;;;;;4955290;29;20024;-77
2022/04/30 09:54:51;;;;;;;2.20;1.83;;;;;;;;;;4943650;29;20066;-77
2022/04/30 09:57:18;;;;;;;4.05;2.17;;;;;;;;;;4956087;28;20410;-76
2022/04/30 09:59:45;;;;;;;2.58;2.15;;;;;;;;;;4956133;28;20035;-75
2022/04/30 10:02:10;;;;;;;4.90;2.17;;;;;;;;;;4955861;29;20138;-76
2022/04/30 10:04:37;;;;;;;3.03;2.10;;;;;;;;;;4955702;29;20474;-76
2022/04/30 10:07:04;;;;;;;2.58;1.75;;;;;;;;;;4972249;28;20501;-76
2022/04/30 10:09:44;;;;;;;3.63;2.20;;;;;;;;;;4955777;29;20120;-76
2022/04/30 10:12:22;;;;;;;2.70;2.25;;;;;;;;;;4956533;29;20038;-76
2022/04/30 10:15:10;;;;;;;2.60;2.03;;;;;;;;;;4955774;29;20027;-76
2022/04/30 10:17:39;;;;;;;3.47;1.90;;;;;;;;;;4957780;28;20031;-76
2022/04/30 10:22:54;;;;;;;3.22;2.00;;;;;;;;;;4956297;29;20121;-77
2022/04/30 10:25:41;;;;;;;3.13;1.90;;;;;;;;;;4940391;29;20024;-77
2022/04/30 10:28:21;;;;;;;3.20;2.03;;;;;;;;;;4940111;29;20027;-77
2022/04/30 10:31:03;;;;;;;3.45;1.95;;;;;;;;;;4957562;29;20047;-77
2022/04/30 10:33:30;;;;;;;2.35;1.73;;;;;;;;;;4956058;28;20166;-75
2022/04/30 10:36:06;;;;;;;2.10;1.85;;;;;;;;;;4954540;29;20062;-77
2022/04/30 10:38:32;;;;;;;4.75;2.03;;;;;;;;;;4954680;28;20083;-77
2022/04/30 10:41:01;;;;;;;3.92;2.00;;;;;;;;;;4938701;29;20039;-77
2022/04/30 10:43:31;;;;;;;2.97;2.00;;;;;;;;;;4956153;29;20461;-77
2022/04/30 10:45:57;;;;;;;2.80;1.90;;;;;;;;;;4954851;29;20111;-77
2022/04/30 10:48:22;;;;;;;4.85;2.10;;;;;;;;;;4956354;29;20470;-76
2022/04/30 10:51:02;;;;;;;3.45;1.80;;;;;;;;;;4955881;29;20478;-77
2022/04/30 10:53:28;;;;;;;3.17;1.92;;;;;;;;;;4938763;29;20443;-76
2022/04/30 10:55:54;;;;;;;2.85;1.90;;;;;;;;;;4954273;28;20050;-77
2022/04/30 10:58:27;;;;;;;3.58;1.90;;;;;;;;;;4954692;29;20493;-77
2022/04/30 11:00:53;;;;;;;2.53;1.52;;;;;;;;;;4938744;29;20023;-77
2022/04/30 11:03:27;;;;;;;2.97;1.63;;;;;;;;;;4955736;29;20102;-77
2022/04/30 11:05:53;;;;;;;2.00;1.90;;;;;;;;;;4954373;29;20089;-78
2022/04/30 11:08:18;;;;;;;4.32;1.70;;;;;;;;;;4938439;29;20035;-78
2022/04/30 11:10:55;;;;;;;1.58;1.48;;;;;;;;;;4954621;29;20027;-78
2022/04/30 11:13:21;;;;;;;3.30;1.70;;;;;;;;;;4954450;29;20066;-78
2022/04/30 11:15:47;;;;;;;2.92;1.80;;;;;;;;;;4954194;29;20066;-76
2022/04/30 11:18:13;;;;;;;1.95;1.60;;;;;;;;;;4954596;29;20034;-76
2022/04/30 11:20:39;;;;;;;3.40;1.90;;;;;;;;;;4953783;29;20034;-77
2022/04/30 11:23:04;;;;;;;2.00;1.40;;;;;;;;;;4953958;29;20363;-76
2022/04/30 11:25:38;;;;;;;4.25;1.60;;;;;;;;;;4955386;29;20096;-79
2022/04/30 11:28:07;;;;;;;1.95;1.52;;;;;;;;;;4953791;29;20062;-78
2022/04/30 11:30:37;;;;;;;4.82;1.80;;;;;;;;;;4953645;29;20036;-78
2022/04/30 11:33:06;;;;;;;2.75;1.77;;;;;;;;;;4953640;28;20098;-78
2022/04/30 11:35:32;;;;;;;4.63;1.70;;;;;;;;;;4953833;29;20476;-78
2022/04/30 11:37:57;;;;;;;6.05;1.80;;;;;;;;;;4953516;29;20031;-78
2022/04/30 11:40:24;;;;;;;6.90;1.75;;;;;;;;;;4953413;29;20027;-78
2022/04/30 11:42:57;;;;;;;4.85;1.45;;;;;;;;;;4953793;28;20366;-78
2022/04/30 11:45:30;;;;;;;2.47;1.52;;;;;;;;;;4954953;29;20332;-78
2022/04/30 11:47:56;;;;;;;2.78;1.63;;;;;;;;;;4937275;29;20089;-78
2022/04/30 11:50:22;;;;;;;4.45;1.40;;;;;;;;;;4937537;29;20475;-78
2022/04/30 11:52:48;;;;;;;3.17;1.55;;;;;;;;;;4953869;29;20070;-79
2022/04/30 11:55:15;;;;;;;3.70;1.60;;;;;;;;;;4953214;29;20043;-80
2022/04/30 11:57:42;;;;;;;5.25;1.60;;;;;;;;;;4953554;29;20063;-76
2022/04/30 12:00:07;;;;;;;6.50;1.50;;;;;;;;;;4953353;28;20502;-77
2022/04/30 12:02:33;;;;;;;1.85;1.40;;;;;;;;;;4955021;29;20070;-77
2022/04/30 12:05:04;;;;;;;2.65;1.50;;;;;;;;;;4953204;28;20032;-76
2022/04/30 12:07:43;;;;;;;3.35;1.48;;;;;;;;;;4952814;28;20059;-77
2022/04/30 12:10:20;;;;;;;3.85;1.77;;;;;;;;;;4953167;29;20105;-78
2022/04/30 12:12:46;;;;;;;3.78;1.40;;;;;;;;;;4953302;29;20027;-78
2022/04/30 12:15:23;;;;;;;5.82;1.83;;;;;;;;;;4953246;28;20038;-78
2022/04/30 12:26:58;;;;;;;12.63;2.58;;;;;;;;;;4953246;29;20430;-79
2022/04/30 12:29:25;;;;;;;3.35;1.75;;;;;;;;;;4952979;29;20101;-79
2022/04/30 12:31:51;;;;;;;5.07;1.85;;;;;;;;;;4952563;28;20133;-79
2022/04/30 12:34:27;;;;;;;7.07;2.42;;;;;;;;;;4952762;29;20035;-80
2022/04/30 12:36:53;;;;;;;9.40;2.28;;;;;;;;;;4954441;29;20035;-79
2022/04/30 12:39:19;;;;;;;4.25;1.67;;;;;;;;;;4954130;29;20510;-79
2022/04/30 12:41:44;;;;;;;3.78;1.70;;;;;;;;;;4952663;29;20042;-78
2022/04/30 12:44:10;;;;;;;3.28;1.60;;;;;;;;;;4954011;29;20046;-80
2022/04/30 12:46:35;;;;;;;4.85;1.98;;;;;;;;;;4952776;29;20425;-80
2022/04/30 12:49:01;;;;;;;5.82;1.73;;;;;;;;;;4953433;29;20039;-81
2022/04/30 12:51:26;;;;;;;5.10;1.83;;;;;;;;;;4940077;29;20054;-79
2022/04/30 12:53:52;;;;;;;6.75;2.10;;;;;;;;;;4960239;29;20083;-80
2022/04/30 12:56:18;;;;;;;6.40;1.50;;;;;;;;;;4962295;29;20035;-78
2022/04/30 12:58:43;;;;;;;4.38;1.30;;;;;;;;;;4954956;29;20070;-79
2022/04/30 13:01:09;;;;;;;2.58;1.50;;;;;;;;;;4957389;29;20107;-78
2022/04/30 13:03:34;;;;;;;4.72;1.55;;;;;;;;;;4954073;29;20446;-78
2022/04/30 13:06:00;;;;;;;4.25;1.60;;;;;;;;;;4952629;29;20042;-80
2022/04/30 13:13:30;;;;;;;4.95;1.40;;;;;;;;;;4952720;29;20046;-79
2022/04/30 13:13:54;;;;;;;10.05;1.42;;;;;;;;;;4953718;29;20545;-80
2022/04/30 13:16:20;;;;;;;3.15;1.42;;;;;;;;;;4920453;29;20035;-79
2022/04/30 13:18:45;;;;;;;3.35;1.45;;;;;;;;;;4951922;28;20391;-80
2022/04/30 13:21:10;;;;;;;4.40;1.60;;;;;;;;;;4940361;29;20031;-79
2022/04/30 13:23:36;;;;;;;11.25;1.67;;;;;;;;;;4955883;29;20122;-79
2022/04/30 13:26:11;;;;;;;8.63;1.75;;;;;;;;;;4957859;29;20034;-79
2022/04/30 13:28:38;;;;;;;3.92;1.60;;;;;;;;;;4956653;29;20039;-78
2022/04/30 13:31:04;;;;;;;3.50;1.60;;;;;;;;;;4957148;29;20106;-79
2022/04/30 13:33:29;;;;;;;4.05;1.63;;;;;;;;;;4955497;28;20071;-79
2022/04/30 13:35:55;;;;;;;2.92;1.60;;;;;;;;;;4956618;29;20046;-78
2022/04/30 13:38:20;;;;;;;10.88;1.85;;;;;;;;;;4939148;29;20057;-81
2022/04/30 13:40:46;;;;;;;5.20;1.70;;;;;;;;;;4956749;29;20106;-78
2022/04/30 13:43:11;;;;;;;2.15;1.45;;;;;;;;;;4956556;29;20027;-78
2022/04/30 13:45:37;;;;;;;2.85;1.42;;;;;;;;;;4940074;29;20053;-80
2022/04/30 13:48:04;;;;;;;2.95;1.50;;;;;;;;;;4971904;28;20031;-80
2022/04/30 13:50:30;;;;;;;6.13;1.38;;;;;;;;;;4939966;29;20024;-79
2022/04/30 13:52:55;;;;;;;4.57;1.48;;;;;;;;;;4923703;29;20430;-78
2022/04/30 13:55:21;;;;;;;6.78;1.50;;;;;;;;;;4971659;28;20066;-81
2022/04/30 13:57:48;;;;;;;6.00;1.50;;;;;;;;;;4955783;29;20074;-79
2022/04/30 14:00:21;;;;;;;5.18;1.38;;;;;;;;;;4939750;29;20083;-79
2022/04/30 14:02:51;;;;;;;5.15;1.65;;;;;;;;;;4956000;28;20063;-78
2022/04/30 14:05:23;;;;;;;1.67;1.30;;;;;;;;;;4955261;29;20038;-79
2022/04/30 14:07:55;;;;;;;4.28;1.55;;;;;;;;;;4939700;28;20039;-80
2022/04/30 14:10:22;;;;;;;3.35;1.77;;;;;;;;;;4939715;29;20035;-80
2022/04/30 14:12:48;;;;;;;4.00;1.65;;;;;;;;;;4939087;29;20035;-81
2022/04/30 14:15:14;;;;;;;2.15;1.30;;;;;;;;;;4956137;29;20587;-79
2022/04/30 14:20:23;;;;;;;2.75;1.30;;;;;;;;;;4956857;29;20403;-80
2022/04/30 14:22:50;;;;;;;4.00;1.60;;;;;;;;;;4955120;29;20035;-79
2022/04/30 14:25:15;;;;;;;5.28;1.52;;;;;;;;;;4938766;29;20023;-79
2022/04/30 14:27:41;;;;;;;7.78;1.40;;;;;;;;;;4954568;29;20109;-79
2022/04/30 14:30:09;;;;;;;4.47;1.40;;;;;;;;;;4954731;29;20031;-80
2022/04/30 14:32:37;;;;;;;7.47;1.70;;;;;;;;;;4955706;28;20417;-79
2022/04/30 14:35:04;;;;;;;2.65;1.48;;;;;;;;;;4939207;28;20067;-80
2022/04/30 14:37:30;;;;;;;3.05;1.30;;;;;;;;;;4939444;29;20041;-81
2022/04/30 14:40:01;;;;;;;2.53;1.48;;;;;;;;;;4938493;29;20443;-80
2022/04/30 14:42:27;;;;;;;2.83;1.65;;;;;;;;;;4954817;29;20102;-80
2022/04/30 14:44:52;;;;;;;2.50;1.52;;;;;;;;;;4938723;29;20127;-81
2022/04/30 14:47:19;;;;;;;4.05;1.70;;;;;;;;;;4938722;29;20114;-81
2022/04/30 14:49:45;;;;;;;6.47;1.52;;;;;;;;;;4954161;29;20118;-80
2022/04/30 14:52:11;;;;;;;2.50;1.40;;;;;;;;;;4938414;29;20134;-81
2022/04/30 14:54:37;;;;;;;4.82;1.60;;;;;;;;;;4954586;29;20155;-84
2022/04/30 14:57:02;;;;;;;8.02;1.50;;;;;;;;;;4954680;28;20039;-82
2022/04/30 14:59:28;;;;;;;3.10;1.20;;;;;;;;;;4954809;29;20142;-84
2022/04/30 15:01:53;;;;;;;2.03;1.27;;;;;;;;;;4938232;29;20035;-83
2022/04/30 15:04:19;;;;;;;3.58;1.30;;;;;;;;;;4938679;29;20028;-83
2022/04/30 15:06:44;;;;;;;2.28;1.40;;;;;;;;;;4938644;29;20035;-81
2022/04/30 15:09:09;;;;;;;4.05;1.55;;;;;;;;;;4955647;29;20328;-82
2022/04/30 15:11:35;;;;;;;1.63;1.08;;;;;;;;;;4954574;29;20363;-83
2022/04/30 15:14:00;;;;;;;2.22;1.17;;;;;;;;;;4955392;29;20086;-82
2022/04/30 15:16:26;;;;;;;5.70;1.55;;;;;;;;;;4938867;29;20038;-81
2022/04/30 15:18:52;;;;;;;1.63;1.38;;;;;;;;;;4954439;29;20370;-80
2022/04/30 15:21:17;;;;;;;1.50;1.05;;;;;;;;;;4938242;29;20038;-81
2022/04/30 15:23:42;;;;;;;2.58;1.40;;;;;;;;;;4953922;29;20395;-81
2022/04/30 15:26:08;;;;;;;1.70;1.08;;;;;;;;;;4953981;29;20034;-82
2022/04/30 15:28:33;;;;;;;1.98;1.42;;;;;;;;;;4969790;28;20061;-81
2022/04/30 15:30:59;;;;;;;1.88;1.27;;;;;;;;;;4906731;29;20079;-81
2022/04/30 15:33:24;;;;;;;2.05;1.10;;;;;;;;;;4953358;28;20379;-81
2022/04/30 15:35:50;;;;;;;3.00;1.20;;;;;;;;;;4938068;29;20063;-81